Time;durP1;ratioP1;P1;durP2;ratioP2;P2;SDS_P1;SDS_P2;PMS_P1;PMS_P2;Temp;Humidity;BMP_temperature;BMP_pressure;BME280_temperature;BME280_humidity;BME280_pressure;Samples;Min_cycle;Max_cycle;Signal;HPM_P1;HPM_P2
2022/05/12 00:00:43;;;;;;;7.18;1.13;;;;;;;10.53;100.00;101317.81;5062698;28;20485;-29
2022/05/12 00:03:12;;;;;;;8.15;1.15;;;;;;;10.53;100.00;101321.44;5058337;28;20103;-33
2022/05/12 00:05:40;;;;;;;6.32;1.40;;;;;;;10.52;100.00;101317.00;5062180;28;20469;-29
2022/05/12 00:08:09;;;;;;;6.38;1.17;;;;;;;10.53;100.00;101327.03;5059035;28;20536;-34
2022/05/12 00:10:37;;;;;;;9.20;1.45;;;;;;;10.52;100.00;101317.00;5062589;28;20048;-36
2022/05/12 00:13:07;;;;;;;9.45;1.55;;;;;;;10.53;100.00;101329.81;5047192;28;20056;-31
2022/05/12 00:15:37;;;;;;;10.75;1.88;;;;;;;10.53;100.00;101329.81;5060529;28;20524;-33
2022/05/12 00:18:08;;;;;;;7.68;1.10;;;;;;;10.55;100.00;101335.13;5045717;28;20069;-29
2022/05/12 00:20:39;;;;;;;6.82;1.33;;;;;;;10.54;100.00;101345.44;5058625;28;20048;-35
2022/05/12 00:23:11;;;;;;;8.63;1.73;;;;;;;10.57;100.00;101344.88;5059408;28;20049;-31
2022/05/12 00:25:40;;;;;;;5.80;1.23;;;;;;;10.59;100.00;101345.41;5059796;28;20524;-38
2022/05/12 00:28:08;;;;;;;7.90;1.70;;;;;;;10.60;100.00;101349.84;5060994;28;20048;-33
2022/05/12 00:30:36;;;;;;;9.35;1.80;;;;;;;10.62;100.00;101347.63;5063175;28;20084;-29
2022/05/12 00:33:06;;;;;;;11.57;2.03;;;;;;;10.67;100.00;101355.13;5063332;28;20052;-32
2022/05/12 00:35:39;;;;;;;6.45;1.30;;;;;;;10.70;100.00;101351.78;5060547;28;20041;-33
2022/05/12 00:38:09;;;;;;;8.38;2.00;;;;;;;10.74;100.00;101354.81;5058986;28;20053;-31
2022/05/12 00:40:38;;;;;;;8.18;1.35;;;;;;;10.75;100.00;101356.50;5058340;28;20504;-36
2022/05/12 00:43:08;;;;;;;6.78;1.20;;;;;;;10.76;100.00;101358.16;5059274;28;20152;-32
2022/05/12 00:45:39;;;;;;;8.98;1.50;;;;;;;10.76;100.00;101355.38;5059124;28;20049;-32
2022/05/12 00:48:07;;;;;;;8.65;1.40;;;;;;;10.76;100.00;101367.38;5059324;28;20272;-33
2022/05/12 00:50:40;;;;;;;6.10;1.27;;;;;;;10.78;100.00;101369.88;5058396;28;20041;-32
2022/05/12 00:53:13;;;;;;;8.40;1.40;;;;;;;10.79;100.00;101363.19;5061457;28;20510;-31
2022/05/12 00:55:44;;;;;;;7.57;1.50;;;;;;;10.80;100.00;101375.97;5058144;28;20375;-29
2022/05/12 00:58:16;;;;;;;6.55;1.30;;;;;;;10.81;100.00;101370.13;5055182;28;20037;-30
2022/05/12 01:00:45;;;;;;;7.30;1.55;;;;;;;10.82;100.00;101380.16;5064589;28;20230;-33
2022/05/12 01:03:18;;;;;;;6.05;1.23;;;;;;;10.82;100.00;101379.31;5060047;28;20052;-31
2022/05/12 01:05:47;;;;;;;8.00;1.40;;;;;;;10.82;100.00;101382.94;5064875;28;20044;-31
2022/05/12 01:08:19;;;;;;;4.32;1.10;;;;;;;10.83;100.00;101389.38;5059964;28;20048;-33
2022/05/12 01:10:50;;;;;;;8.90;1.65;;;;;;;10.84;100.00;101374.28;5064575;28;20405;-31
2022/05/12 01:13:26;;;;;;;7.13;1.60;;;;;;;10.85;100.00;101375.97;5061965;28;20040;-30
2022/05/12 01:15:56;;;;;;;5.07;1.63;;;;;;;10.87;100.00;101391.31;5067416;28;20067;-30
2022/05/12 01:18:25;;;;;;;11.10;2.58;;;;;;;10.89;100.00;101391.03;5064752;28;20047;-33
2022/05/12 01:20:53;;;;;;;7.80;2.00;;;;;;;10.91;100.00;101394.34;5068420;28;20060;-33
2022/05/12 01:23:25;;;;;;;7.65;1.73;;;;;;;10.92;100.00;101394.06;5063787;28;20056;-31
2022/05/12 01:25:57;;;;;;;9.98;2.20;;;;;;;10.92;100.00;101401.63;5067500;28;20501;-32
2022/05/12 01:28:25;;;;;;;7.95;1.98;;;;;;;10.92;100.00;101396.03;5057774;28;20048;-31
2022/05/12 01:30:53;;;;;;;7.00;1.98;;;;;;;10.92;100.00;101396.88;5067180;28;20510;-32
2022/05/12 01:33:22;;;;;;;7.78;2.22;;;;;;;10.93;100.00;101406.09;5064851;28;20059;-27
2022/05/12 01:35:50;;;;;;;7.63;2.00;;;;;;;10.93;100.00;101404.13;5067770;28;20135;-32
2022/05/12 01:38:18;;;;;;;8.60;2.15;;;;;;;10.92;100.00;101408.03;5065997;28;20084;-29
2022/05/12 01:40:47;;;;;;;7.68;2.20;;;;;;;10.93;100.00;101411.66;5067240;28;20155;-34
2022/05/12 01:43:16;;;;;;;10.25;2.35;;;;;;;10.95;100.00;101423.38;5065965;28;20406;-34
2022/05/12 01:45:44;;;;;;;13.35;2.95;;;;;;;10.96;100.00;101420.31;5074781;28;20132;-31
2022/05/12 01:48:13;;;;;;;12.30;3.53;;;;;;;10.98;100.00;101425.59;5064048;28;20513;-32
2022/05/12 01:50:43;;;;;;;8.57;2.80;;;;;;;11.01;100.00;101425.00;5064585;28;20479;-34
2022/05/12 01:53:12;;;;;;;9.80;2.97;;;;;;;11.00;100.00;101435.34;5060707;28;20037;-30
2022/05/12 01:55:41;;;;;;;8.75;2.88;;;;;;;11.00;100.00;101426.13;5060581;28;20136;-30
2022/05/12 01:58:10;;;;;;;10.15;3.20;;;;;;;10.99;100.00;101428.09;5059988;28;20049;-32
2022/05/12 02:00:39;;;;;;;13.18;3.50;;;;;;;10.99;100.00;101436.47;5060795;28;20183;-30
2022/05/12 02:03:06;;;;;;;9.60;2.92;;;;;;;10.98;100.00;101432.03;5061797;28;20052;-36
2022/05/12 02:05:37;;;;;;;12.43;3.40;;;;;;;10.96;100.00;101430.63;5063019;28;20040;-31
2022/05/12 02:08:06;;;;;;;9.73;2.85;;;;;;;10.93;100.00;101434.00;5054868;28;20057;-31
2022/05/12 02:10:39;;;;;;;10.18;2.60;;;;;;;10.94;100.00;101438.47;5064634;28;20061;-33
2022/05/12 02:13:07;;;;;;;8.93;2.70;;;;;;;10.91;100.00;101450.22;5060002;28;20055;-32
2022/05/12 02:15:37;;;;;;;9.35;2.72;;;;;;;10.89;100.00;101452.44;5064904;28;20044;-34
2022/05/12 02:18:06;;;;;;;8.18;2.25;;;;;;;10.87;100.00;101454.69;5061116;28;20486;-34
2022/05/12 02:20:34;;;;;;;14.32;2.47;;;;;;;10.85;100.00;101449.38;5064014;28;20049;-27
2022/05/12 02:23:02;;;;;;;8.05;2.50;;;;;;;10.85;100.00;101452.19;5061112;28;20045;-30
2022/05/12 02:25:31;;;;;;;9.52;2.50;;;;;;;10.85;100.00;101452.19;5063368;28;20064;-33
2022/05/12 02:27:59;;;;;;;9.27;2.20;;;;;;;10.85;100.00;101454.97;5066241;28;20080;-31
2022/05/12 02:30:29;;;;;;;11.45;2.40;;;;;;;10.82;100.00;101458.31;5064603;28;20040;-31
2022/05/12 02:32:59;;;;;;;9.02;2.03;;;;;;;10.83;100.00;101459.16;5059976;28;20058;-32
2022/05/12 02:35:29;;;;;;;6.53;1.92;;;;;;;10.82;100.00;101474.25;5064502;28;20085;-33
2022/05/12 02:37:57;;;;;;;5.57;1.92;;;;;;;10.81;100.00;101476.19;5050189;28;20043;-34
2022/05/12 02:40:28;;;;;;;9.00;1.70;;;;;;;10.80;100.00;101476.47;5061865;28;20059;-35
2022/05/12 02:42:57;;;;;;;10.15;2.08;;;;;;;10.79;100.00;101484.03;5061287;28;20452;-31
2022/05/12 02:45:26;;;;;;;10.85;1.70;;;;;;;10.79;100.00;101489.59;5060875;28;20131;-30
2022/05/12 02:47:54;;;;;;;9.45;1.50;;;;;;;10.77;100.00;101482.66;5060090;28;20032;-33
2022/05/12 02:50:24;;;;;;;7.57;1.65;;;;;;;10.75;100.00;101490.50;5062348;28;20052;-29
2022/05/12 02:52:51;;;;;;;6.45;1.42;;;;;;;10.73;100.00;101496.34;5059487;28;20398;-35
2022/05/12 02:55:19;;;;;;;8.38;2.08;;;;;;;10.70;100.00;101485.75;5061379;28;20070;-31
2022/05/12 02:57:47;;;;;;;9.55;1.90;;;;;;;10.68;100.00;101496.38;5060651;28;20049;-35
2022/05/12 03:00:18;;;;;;;10.32;1.80;;;;;;;10.66;100.00;101498.59;5060857;28;20044;-26
2022/05/12 03:02:46;;;;;;;9.68;1.73;;;;;;;10.65;100.00;101502.50;5060184;28;20063;-31
2022/05/12 03:05:15;;;;;;;11.00;1.77;;;;;;;10.63;100.00;101502.78;5060795;28;20055;-28
2022/05/12 03:07:45;;;;;;;8.68;1.98;;;;;;;10.64;100.00;101506.41;5061174;28;20041;-30
2022/05/12 03:10:13;;;;;;;8.38;1.95;;;;;;;10.63;100.00;101505.59;5059991;28;20060;-34
2022/05/12 03:12:42;;;;;;;6.43;1.52;;;;;;;10.63;100.00;101513.94;5056702;28;20044;-34
2022/05/12 03:15:12;;;;;;;7.20;1.60;;;;;;;10.64;100.00;101517.56;5065478;28;20041;-30
2022/05/12 03:17:43;;;;;;;9.77;1.80;;;;;;;10.66;100.00;101521.75;5062402;28;20041;-30
2022/05/12 03:20:14;;;;;;;10.27;1.35;;;;;;;10.66;100.00;101524.56;5066157;28;20109;-31
2022/05/12 03:22:43;;;;;;;6.57;1.45;;;;;;;10.66;100.00;101527.34;5061365;28;20033;-36
2022/05/12 03:25:14;;;;;;;9.07;1.83;;;;;;;10.66;100.00;101527.34;5065812;28;20047;-32
2022/05/12 03:27:42;;;;;;;9.43;1.83;;;;;;;10.64;100.00;101529.59;5065969;28;20055;-31
2022/05/12 03:30:13;;;;;;;9.30;2.10;;;;;;;10.65;100.00;101530.41;5058819;28;20418;-30
2022/05/12 03:32:41;;;;;;;10.98;1.52;;;;;;;10.64;100.00;101539.91;5063450;28;20053;-37
2022/05/12 03:35:10;;;;;;;8.38;1.85;;;;;;;10.62;100.00;101540.19;5059430;28;20037;-33
2022/05/12 03:37:39;;;;;;;9.38;1.95;;;;;;;10.61;100.00;101541.31;5060762;28;20563;-31
2022/05/12 03:40:11;;;;;;;7.47;1.50;;;;;;;10.61;100.00;101546.06;5057382;28;20148;-34
2022/05/12 03:42:39;;;;;;;;;;;;;;;10.54;100.00;101545.53;5060037;28;20036;-35
2022/05/12 03:45:08;;;;;;;10.30;1.73;;;;;;;10.50;100.00;101545.25;5057671;28;20015;-31
2022/05/12 03:47:39;;;;;;;8.18;1.70;;;;;;;10.53;100.00;101546.66;5059255;28;20075;-29
2022/05/12 03:50:10;;;;;;;9.65;2.00;;;;;;;10.53;100.00;101544.69;5057269;28;20045;-32
2022/05/12 03:52:45;;;;;;;5.55;1.33;;;;;;;10.53;100.00;101541.91;5048663;28;20417;-30
2022/05/12 03:55:16;;;;;;;7.07;1.85;;;;;;;10.55;100.00;101541.63;5059563;28;20111;-40
2022/05/12 03:57:45;;;;;;;6.78;1.50;;;;;;;10.53;100.00;101547.47;5059523;28;20505;-31
2022/05/12 04:00:16;;;;;;;8.35;1.58;;;;;;;10.54;100.00;101559.47;5056184;28;20393;-37
2022/05/12 04:02:44;;;;;;;7.35;1.60;;;;;;;10.54;100.00;101560.31;5063787;28;20368;-30
2022/05/12 04:05:12;;;;;;;6.63;1.73;;;;;;;10.55;100.00;101567.56;5063850;28;20072;-31
2022/05/12 04:07:49;;;;;;;9.32;1.80;;;;;;;10.56;100.00;101560.88;5060277;28;20387;-30
2022/05/12 04:10:18;;;;;;;6.90;1.63;;;;;;;10.56;100.00;101572.03;5064442;28;20055;-32
2022/05/12 04:12:46;;;;;;;8.80;1.70;;;;;;;10.56;100.00;101566.47;5057785;28;20044;-30
2022/05/12 04:15:15;;;;;;;9.70;1.92;;;;;;;10.56;100.00;101569.25;5059559;28;20049;-33
2022/05/12 04:17:44;;;;;;;8.30;1.73;;;;;;;10.56;100.00;101580.41;5059609;28;20041;-27
2022/05/12 04:20:13;;;;;;;8.18;1.67;;;;;;;10.57;100.00;101578.47;5059925;28;20055;-29
2022/05/12 04:22:43;;;;;;;12.77;2.65;;;;;;;10.59;100.00;101570.66;5059071;28;20040;-27
2022/05/12 04:25:11;;;;;;;12.85;1.90;;;;;;;10.60;100.00;101572.28;5060966;28;20053;-28
2022/05/12 04:27:42;;;;;;;10.68;1.95;;;;;;;10.62;100.00;101575.63;5054836;28;20076;-32
2022/05/12 04:30:13;;;;;;;11.07;2.00;;;;;;;10.62;100.00;101576.47;5071788;28;20060;-34
2022/05/12 04:32:41;;;;;;;6.68;1.83;;;;;;;10.63;100.00;101577.31;5064200;28;20064;-29
2022/05/12 04:35:12;;;;;;;8.13;2.00;;;;;;;10.67;100.00;101595.16;5048968;28;20438;-31
2022/05/12 04:37:44;;;;;;;6.63;1.90;;;;;;;10.67;100.00;101581.22;5064853;28;20040;-34
2022/05/12 04:40:14;;;;;;;7.15;1.80;;;;;;;10.68;100.00;101596.84;5060011;28;20053;-33
2022/05/12 04:42:43;;;;;;;10.77;2.00;;;;;;;10.71;100.00;101607.44;5065069;28;20405;-34
2022/05/12 04:45:12;;;;;;;10.30;2.47;;;;;;;10.73;100.00;101598.78;5060769;28;20040;-30
2022/05/12 04:47:41;;;;;;;15.05;2.25;;;;;;;10.73;100.00;101598.78;5064637;28;20045;-31
2022/05/12 04:50:12;;;;;;;9.05;1.70;;;;;;;10.77;100.00;101605.50;5067344;28;20041;-32
2022/05/12 04:52:40;;;;;;;9.50;2.00;;;;;;;10.77;100.00;101600.75;5071646;28;20045;-29
2022/05/12 04:55:09;;;;;;;9.60;1.83;;;;;;;10.78;100.00;101598.78;5071281;28;20440;-32
2022/05/12 04:57:39;;;;;;;7.63;1.83;;;;;;;10.80;100.00;101610.50;5053181;28;20044;-32
2022/05/12 05:00:13;;;;;;;8.50;1.70;;;;;;;10.81;100.00;101609.38;5065486;28;20041;-36
2022/05/12 05:02:41;;;;;;;7.13;1.85;;;;;;;10.82;100.00;101613.84;5064191;28;20452;-35
2022/05/12 05:05:10;;;;;;;10.60;1.75;;;;;;;10.83;100.00;101612.72;5058346;28;20057;-29
2022/05/12 05:07:39;;;;;;;11.10;2.08;;;;;;;10.84;100.00;101626.41;5063565;28;20049;-36
2022/05/12 05:10:09;;;;;;;6.30;1.77;;;;;;;10.86;100.00;101632.53;5052933;28;20048;-32
2022/05/12 05:12:37;;;;;;;9.10;2.00;;;;;;;10.89;100.00;101634.78;5064412;28;20053;-29
2022/05/12 05:15:06;;;;;;;10.00;2.08;;;;;;;10.92;100.00;101630.59;5065060;28;20403;-32
2022/05/12 05:17:36;;;;;;;9.73;1.80;;;;;;;10.94;100.00;101642.31;5070328;28;20493;-35
2022/05/12 05:20:05;;;;;;;7.82;1.50;;;;;;;10.96;100.00;101637.28;5065156;28;20053;-29
2022/05/12 05:22:33;;;;;;;9.80;1.95;;;;;;;10.97;100.00;101645.38;5064695;28;20437;-37
2022/05/12 05:25:03;;;;;;;8.07;1.50;;;;;;;10.99;100.00;101648.69;5064795;28;20048;-33
2022/05/12 05:27:30;;;;;;;6.47;1.60;;;;;;;11.02;100.00;101656.50;5065136;28;20486;-33
2022/05/12 05:29:58;;;;;;;6.47;1.25;;;;;;;11.05;100.00;101663.50;5064113;28;20051;-30
2022/05/12 05:32:27;;;;;;;7.07;1.52;;;;;;;11.08;100.00;101654.56;5072787;28;20061;-31
2022/05/12 05:34:56;;;;;;;6.43;1.50;;;;;;;11.11;100.00;101656.78;5063001;28;20044;-27
2022/05/12 05:37:24;;;;;;;8.43;1.70;;;;;;;11.14;100.00;101661.81;5068039;28;20044;-28
2022/05/12 05:39:52;;;;;;;7.00;1.60;;;;;;;11.16;100.00;101659.56;5064572;28;20041;-30
2022/05/12 05:42:20;;;;;;;6.05;1.55;;;;;;;11.19;100.00;101667.38;5067837;28;20052;-36
2022/05/12 05:44:49;;;;;;;7.97;1.73;;;;;;;11.21;100.00;101667.91;5064392;28;20053;-33
2022/05/12 05:47:17;;;;;;;8.73;1.58;;;;;;;11.24;100.00;101677.69;5068578;28;20483;-32
2022/05/12 05:49:45;;;;;;;6.18;1.27;;;;;;;11.26;100.00;101681.88;5063971;28;20067;-36
2022/05/12 05:54:59;;;;;;;7.38;2.00;;;;;;;11.33;100.00;101698.34;5064529;28;20041;-31
2022/05/12 05:57:30;;;;;;;7.40;1.52;;;;;;;11.38;100.00;101703.94;5067887;28;20063;-33
2022/05/12 06:00:04;;;;;;;8.02;1.70;;;;;;;11.42;100.00;101706.97;5062080;28;20041;-32
2022/05/12 06:02:32;;;;;;;7.32;1.58;;;;;;;11.46;100.00;101713.69;5065872;28;20032;-33
2022/05/12 06:05:01;;;;;;;7.88;1.70;;;;;;;11.49;100.00;101721.50;5060306;28;20502;-34
2022/05/12 06:07:30;;;;;;;9.05;1.90;;;;;;;11.54;100.00;101727.09;5064418;28;20044;-38
2022/05/12 06:09:58;;;;;;;8.40;2.03;;;;;;;11.59;100.00;101732.66;5061258;28;20444;-32
2022/05/12 06:12:26;;;;;;;8.25;1.80;;;;;;;11.66;100.00;101731.22;5061979;28;20056;-30
2022/05/12 06:14:53;;;;;;;6.32;1.60;;;;;;;11.75;100.00;101742.66;5048052;28;20080;-29
2022/05/12 06:17:21;;;;;;;8.77;1.80;;;;;;;11.83;100.00;101747.69;5061772;28;20053;-29
2022/05/12 06:19:50;;;;;;;9.13;1.67;;;;;;;11.95;100.00;101761.34;5060864;28;20421;-35
2022/05/12 06:22:19;;;;;;;9.23;2.25;;;;;;;12.10;100.00;101763.22;5062992;28;20044;-32
2022/05/12 06:24:49;;;;;;;7.75;1.80;;;;;;;12.29;100.00;101764.25;5060463;28;20110;-34
2022/05/12 06:27:19;;;;;;;9.02;1.52;;;;;;;12.52;100.00;101771.94;5066073;28;20481;-33
2022/05/12 06:29:47;;;;;;;8.20;1.60;;;;;;;12.91;100.00;101773.91;5061538;28;20504;-29
2022/05/12 06:32:16;;;;;;;8.68;1.70;;;;;;;13.33;100.00;101776.91;5046501;28;20064;-32
2022/05/12 06:34:43;;;;;;;8.05;1.75;;;;;;;13.69;100.00;101777.34;5061721;28;20394;-32
2022/05/12 06:37:11;;;;;;;10.55;1.48;;;;;;;14.27;100.00;101781.97;5061368;28;20529;-29
2022/05/12 06:39:39;;;;;;;8.23;1.38;;;;;;;14.76;100.00;101787.19;5063004;28;20064;-37
2022/05/12 06:42:09;;;;;;;8.10;1.83;;;;;;;15.27;100.00;101797.56;5060431;28;20056;-34
2022/05/12 06:44:42;;;;;;;6.13;1.38;;;;;;;15.85;100.00;101787.50;5064482;28;20049;-30
2022/05/12 06:47:11;;;;;;;9.18;1.75;;;;;;;16.22;100.00;101799.66;5059431;28;20498;-34
2022/05/12 06:49:39;;;;;;;6.45;1.30;;;;;;;16.51;100.00;101790.88;5064359;28;20037;-34
2022/05/12 06:52:08;;;;;;;6.43;1.40;;;;;;;16.69;100.00;101806.00;5060432;28;20065;-36
2022/05/12 06:54:38;;;;;;;8.27;1.40;;;;;;;16.82;100.00;101794.66;5063794;28;20044;-34
2022/05/12 06:57:07;;;;;;;4.63;1.17;;;;;;;17.12;100.00;101807.19;5060305;28;20051;-34
2022/05/12 06:59:39;;;;;;;4.15;1.17;;;;;;;17.48;100.00;101806.25;5063130;28;20048;-30
2022/05/12 07:02:08;;;;;;;4.10;1.05;;;;;;;18.05;100.00;101803.56;5060377;28;20048;-30
2022/05/12 07:04:36;;;;;;;6.28;1.20;;;;;;;18.76;100.00;101801.44;5064159;28;20060;-33
2022/05/12 07:07:05;;;;;;;5.95;1.10;;;;;;;19.12;98.82;101816.09;5059319;28;20405;-30
2022/05/12 07:09:33;;;;;;;7.22;1.70;;;;;;;19.43;95.70;101813.03;5063276;28;20040;-30
2022/05/12 07:12:00;;;;;;;7.32;1.38;;;;;;;19.67;90.75;101818.16;5060014;28;20053;-32
2022/05/12 07:14:28;;;;;;;5.75;1.20;;;;;;;19.69;87.49;101812.16;5060620;28;20067;-35
2022/05/12 07:16:57;;;;;;;5.95;1.23;;;;;;;19.88;88.17;101812.59;5060425;28;20045;-35
2022/05/12 07:19:25;;;;;;;7.55;1.30;;;;;;;20.36;84.58;101815.06;5061246;28;20825;-34
2022/05/12 07:27:24;;;;;;;7.05;1.60;;;;;;;21.14;79.61;101808.81;5062365;28;20410;-30
2022/05/12 07:29:52;;;;;;;4.68;1.00;;;;;;;21.23;77.38;101815.25;5064634;28;20048;-30
2022/05/12 07:32:22;;;;;;;4.80;1.10;;;;;;;21.27;75.60;101827.59;5065140;28;20450;-34
2022/05/12 07:34:49;;;;;;;4.38;1.17;;;;;;;21.22;74.25;101813.59;5063059;28;20405;-34
2022/05/12 07:37:17;;;;;;;5.18;1.25;;;;;;;21.55;75.91;101817.28;5065440;28;20049;-30
2022/05/12 07:39:45;;;;;;;4.90;1.30;;;;;;;21.94;72.22;101830.03;5064309;28;20056;-30
2022/05/12 07:42:12;;;;;;;4.38;1.10;;;;;;;22.08;69.08;101834.59;5064687;28;20055;-30
2022/05/12 07:44:40;;;;;;;4.60;1.10;;;;;;;22.07;69.29;101830.91;5065509;28;20142;-30
2022/05/12 07:47:13;;;;;;;4.97;1.30;;;;;;;21.98;68.04;101833.00;5064747;28;20417;-34
2022/05/12 07:49:43;;;;;;;4.13;1.10;;;;;;;22.03;69.51;101838.47;5062459;28;20435;-37
2022/05/12 07:52:13;;;;;;;3.60;0.90;;;;;;;22.53;68.17;101838.16;5063657;28;20045;-29
2022/05/12 07:54:41;;;;;;;4.18;0.90;;;;;;;22.89;65.66;101848.66;5065426;28;20053;-35
2022/05/12 07:57:09;;;;;;;5.30;1.23;;;;;;;22.95;65.86;101837.88;5054571;28;20048;-31
2022/05/12 07:59:42;;;;;;;3.45;0.82;;;;;;;22.64;64.17;101850.69;5065674;28;20044;-30
2022/05/12 08:02:15;;;;;;;6.38;1.35;;;;;;;22.48;64.33;101852.59;5061683;28;20045;-30
2022/05/12 08:04:46;;;;;;;5.55;1.52;;;;;;;22.60;63.64;101843.22;5064629;28;20131;-33
2022/05/12 08:07:14;;;;;;;5.30;1.15;;;;;;;22.71;63.56;101849.25;5061622;28;20045;-33
2022/05/12 08:09:43;;;;;;;5.03;1.20;;;;;;;22.65;61.72;101845.81;5057018;28;20474;-34
2022/05/12 08:12:11;;;;;;;6.78;1.48;;;;;;;22.23;61.76;101843.22;5060403;28;20036;-40
2022/05/12 08:14:39;;;;;;;5.80;1.40;;;;;;;22.03;61.92;101849.84;5064917;28;20436;-29
2022/05/12 08:17:09;;;;;;;5.05;1.27;;;;;;;22.07;63.03;101844.28;5060631;28;20048;-36
2022/05/12 08:19:37;;;;;;;5.40;1.40;;;;;;;22.26;62.97;101841.69;5073856;28;20036;-29
2022/05/12 08:22:09;;;;;;;3.97;1.00;;;;;;;22.50;62.32;101847.38;5061014;28;20069;-30
2022/05/12 08:24:36;;;;;;;5.22;1.15;;;;;;;22.49;60.04;101851.41;5063729;28;20044;-37
2022/05/12 08:27:05;;;;;;;4.60;1.00;;;;;;;22.01;61.13;101849.38;5065404;28;20506;-33
2022/05/12 08:29:33;;;;;;;6.03;1.33;;;;;;;21.62;62.83;101847.94;5059308;28;20044;-29
2022/05/12 08:32:00;;;;;;;4.82;1.10;;;;;;;21.59;64.39;101860.00;5047807;28;20040;-29
2022/05/12 08:34:29;;;;;;;5.57;1.02;;;;;;;22.08;61.83;101846.78;5059196;28;20110;-33
2022/05/12 08:36:57;;;;;;;4.03;1.00;;;;;;;22.59;61.50;101850.09;5060401;28;20048;-29
2022/05/12 08:39:26;;;;;;;5.85;1.38;;;;;;;22.87;57.63;101858.75;5057664;28;20048;-33
2022/05/12 08:42:00;;;;;;;5.65;1.05;;;;;;;22.71;56.98;101870.00;5059492;28;20055;-32
2022/05/12 08:44:32;;;;;;;5.35;1.30;;;;;;;22.79;56.63;101871.91;5064472;28;20045;-34
2022/05/12 08:47:03;;;;;;;5.28;1.35;;;;;;;22.54;57.42;101870.28;5059157;28;20041;-30
2022/05/12 08:49:32;;;;;;;4.20;1.30;;;;;;;22.13;57.86;101872.16;5059104;28;20049;-32
2022/05/12 08:52:10;;;;;;;5.20;1.10;;;;;;;21.95;58.83;101887.72;5058744;28;20045;-33
2022/05/12 08:54:43;;;;;;;6.38;1.13;;;;;;;21.40;58.53;101877.56;5059208;28;20409;-29
2022/05/12 08:57:27;;;;;;;5.80;1.30;;;;;;;20.97;56.91;101881.59;5059096;28;20382;-32
2022/05/12 08:59:55;;;;;;;4.82;1.48;;;;;;;20.84;60.70;101888.34;5058124;28;20045;-37
2022/05/12 09:02:29;;;;;;;5.68;1.45;;;;;;;20.53;60.43;101897.22;5063647;28;20044;-34
2022/05/12 09:05:07;;;;;;;4.18;1.25;;;;;;;20.10;61.79;101900.19;5064154;28;20051;-30
2022/05/12 09:07:41;;;;;;;6.03;1.33;;;;;;;19.91;63.50;101899.75;5057690;28;20047;-29
2022/05/12 09:10:22;;;;;;;8.68;1.40;;;;;;;19.78;63.54;101880.97;5059011;28;20057;-31
2022/05/12 09:12:53;;;;;;;4.00;1.03;;;;;;;20.11;65.06;101898.19;5059094;28;20417;-31
2022/05/12 09:15:24;;;;;;;5.90;1.60;;;;;;;20.39;63.80;101884.41;5058123;28;20049;-30
2022/05/12 09:17:58;;;;;;;4.43;1.25;;;;;;;20.34;62.11;101890.28;5058664;28;20056;-31
2022/05/12 09:20:29;;;;;;;6.95;1.48;;;;;;;20.36;63.46;101902.09;5058103;28;20414;-30
2022/05/12 09:22:57;;;;;;;;;;;;;;;20.37;61.77;101898.13;5059110;28;20387;-30
2022/05/12 09:25:33;;;;;;;5.45;0.95;;;;;;;20.34;62.24;101893.94;5058822;28;19928;-32
2022/05/12 09:28:18;;;;;;;4.90;1.33;;;;;;;20.38;63.04;101891.28;5063343;28;20142;-37
2022/05/12 09:30:48;;;;;;;5.28;1.02;;;;;;;20.61;62.60;101895.47;5058630;28;20164;-32
2022/05/12 09:33:25;;;;;;;6.18;1.20;;;;;;;20.90;60.44;101889.81;5058598;28;20088;-36
2022/05/12 09:36:01;;;;;;;5.40;1.20;;;;;;;20.57;58.34;101894.53;5059728;28;20045;-32
2022/05/12 09:38:29;;;;;;;7.20;1.40;;;;;;;20.23;61.78;101898.31;5062470;28;20059;-30
2022/05/12 09:41:01;;;;;;;5.78;1.10;;;;;;;20.50;63.17;101891.38;5062563;28;20561;-37
2022/05/12 09:43:31;;;;;;;5.05;1.08;;;;;;;20.28;61.66;101898.13;5064874;28;20051;-29
2022/05/12 09:46:03;;;;;;;3.85;0.95;;;;;;;20.30;61.45;101904.28;5066178;28;20080;-36
2022/05/12 09:48:32;;;;;;;4.75;1.25;;;;;;;20.08;61.96;101896.88;5066879;28;20052;-39
2022/05/12 09:51:18;;;;;;;5.15;1.30;;;;;;;20.06;62.00;101899.19;5064776;28;20044;-36
2022/05/12 09:53:46;;;;;;;6.47;1.10;;;;;;;20.29;61.36;101905.47;5064909;28;20060;-37
2022/05/12 09:56:32;;;;;;;5.50;1.67;;;;;;;20.09;56.63;101901.38;5064436;28;20052;-35
2022/05/12 09:59:07;;;;;;;3.90;1.00;;;;;;;20.02;60.24;101906.72;5065282;28;20047;-36
2022/05/12 10:01:48;;;;;;;3.30;0.90;;;;;;;20.06;61.34;101906.88;5066845;28;20109;-31
2022/05/12 10:10:11;;;;;;;4.50;1.23;;;;;;;19.54;61.54;101921.16;5056756;28;20049;-36
2022/05/12 10:12:56;;;;;;;5.68;1.05;;;;;;;19.35;62.41;101917.78;5067025;28;20044;-36
2022/05/12 10:15:29;;;;;;;5.65;1.33;;;;;;;19.36;62.47;101908.13;5066740;28;20045;-36
2022/05/12 10:18:00;;;;;;;5.85;1.02;;;;;;;19.25;63.05;101914.13;5066297;28;20048;-33
2022/05/12 10:20:29;;;;;;;4.82;1.38;;;;;;;19.50;63.79;101915.31;5066274;28;20487;-31
2022/05/12 10:23:03;;;;;;;6.13;1.23;;;;;;;19.88;61.12;101906.91;5066765;28;20041;-36
2022/05/12 10:25:59;;;;;;;4.63;1.13;;;;;;;19.87;58.96;101910.09;5064789;28;20366;-36
2022/05/12 10:28:44;;;;;;;5.07;1.30;;;;;;;19.98;61.28;101911.41;5058564;28;20044;-30
2022/05/12 10:31:21;;;;;;;6.07;1.10;;;;;;;20.13;61.75;101915.69;5053779;28;20140;-39
2022/05/12 10:33:57;;;;;;;4.13;1.20;;;;;;;20.33;60.18;101925.47;5050303;28;20056;-35
2022/05/12 10:36:36;;;;;;;4.28;1.00;;;;;;;20.12;58.10;101925.38;5063726;28;20538;-30
2022/05/12 10:39:15;;;;;;;7.55;1.77;;;;;;;19.81;60.30;101917.91;5049917;28;20513;-36
2022/05/12 10:42:00;;;;;;;3.08;1.00;;;;;;;19.57;60.78;101912.00;5064604;28;20091;-33
2022/05/12 10:44:41;;;;;;;5.50;1.08;;;;;;;19.69;60.54;101923.44;5060786;28;20049;-34
2022/05/12 10:47:16;;;;;;;2.65;1.00;;;;;;;19.58;60.26;101913.66;5064054;28;20053;-30
2022/05/12 10:49:52;;;;;;;5.47;0.82;;;;;;;19.68;62.51;101915.28;5060979;28;20387;-36
2022/05/12 10:52:27;;;;;;;4.82;1.05;;;;;;;19.89;62.98;101899.25;5063510;28;20413;-38
2022/05/12 10:55:10;;;;;;;3.30;0.85;;;;;;;19.92;61.42;101913.59;5060282;28;20049;-30
2022/05/12 10:57:49;;;;;;;3.17;0.80;;;;;;;19.98;61.74;101905.75;5064422;28;20037;-34
2022/05/12 11:00:44;;;;;;;5.30;1.30;;;;;;;20.05;59.35;101911.72;5059450;28;20536;-30
2022/05/12 11:03:17;;;;;;;5.22;1.10;;;;;;;20.01;61.26;101909.88;5063966;28;20425;-34
2022/05/12 11:05:48;;;;;;;4.22;1.00;;;;;;;20.23;60.61;101907.63;5059850;28;20049;-35
2022/05/12 11:08:22;;;;;;;4.72;1.13;;;;;;;20.18;61.35;101907.81;5063999;28;20099;-33
2022/05/12 11:10:53;;;;;;;4.28;1.50;;;;;;;20.19;61.75;101908.66;5060429;28;20048;-35
2022/05/12 11:13:27;;;;;;;4.85;1.30;;;;;;;20.30;61.80;101907.13;5062948;28;20049;-30
2022/05/12 11:16:00;;;;;;;7.03;1.50;;;;;;;20.41;62.17;101893.41;5060081;28;20048;-30
2022/05/12 11:18:36;;;;;;;4.18;1.25;;;;;;;20.60;62.32;101906.00;5063762;28;20045;-29
2022/05/12 11:21:14;;;;;;;5.00;1.40;;;;;;;20.22;61.85;101911.66;5058998;28;20049;-31
2022/05/12 11:23:53;;;;;;;5.40;1.20;;;;;;;19.69;60.98;101909.28;5063502;28;20387;-34
2022/05/12 11:26:41;;;;;;;5.32;1.70;;;;;;;19.47;63.76;101918.78;5059662;28;20060;-32
2022/05/12 11:32:22;;;;;;;4.90;1.33;;;;;;;19.95;64.53;101912.91;5062719;28;20413;-36
2022/05/12 11:34:54;;;;;;;5.90;1.60;;;;;;;19.73;64.32;101923.63;5064448;28;20049;-36
2022/05/12 11:37:31;;;;;;;4.82;1.48;;;;;;;19.44;63.46;101919.44;5065216;28;20083;-30
2022/05/12 11:40:01;;;;;;;5.63;1.40;;;;;;;19.38;65.27;101922.78;5065204;28;20409;-29
2022/05/12 11:44:23;;;;;;;7.25;1.30;;;;;;;19.56;65.74;101913.97;5064419;28;20482;-30
2022/05/12 11:45:37;;;;;;;6.70;1.40;;;;;;;19.92;65.28;101918.41;5065339;28;20041;-30
2022/05/12 11:48:33;;;;;;;6.60;1.38;;;;;;;19.98;63.07;101919.91;5060712;28;20040;-38
2022/05/12 11:51:26;;;;;;;5.78;1.45;;;;;;;19.85;64.38;101907.59;5062720;28;20417;-30
2022/05/12 11:53:58;;;;;;;4.35;1.27;;;;;;;19.84;65.37;101914.44;5051831;28;20045;-29